ADVERTISEMENT

iOS app on App Store Android app on Google Play

2017 \ Dodgers Run - October 1, 2017

Notes Pages Download Filter By
  1 2 3 4 5 6 7 8 9 10 [11] 12 13 14 15 16 17 18 19 20 21 22 23 24 25 26 27 28 29 30 31 32 33 34 35 36 37 38 39 40




Keyword Exact  
Division

Bib Division Last Name First Name Division Place Total Time Overall City State
242 30-39 Male Huss Jason 189 00:33:43 1001 Rancho Santa Margari CA
3011 30-39 Male Jimenez Ricardo 190 00:33:44 1002 Oxnard CA
3654 30-39 Male Martin Matthew 191 00:33:45 1003 Valencia CA
5639 30-39 Male Tanaka Charles 192 00:33:45 1004 Lancaster CA
5954 40-49 Female Vassilakis Maria 72 00:33:45 1005 El Segundo CA
2396 19-29 Male Godinez Alexander 88 00:33:45 1006 La Puente CA
5590 30-39 Female Streeter Alesha 131 00:33:46 1007 Lancaster CA
5884 19-29 Female Valdivia Amairani 87 00:33:46 1008 Merced CA
654 40-49 Male Almaguer Sergio 121 00:33:46 1009 Downey CA
76 60-69 Male Jauregui Jj 16 00:33:47 1010 Garden Grove CA
2165 30-39 Male Frias Juan 193 00:33:48 1011 Santa Ana CA
533 19-29 Male Cervantes Ernesto 89 00:33:48 1012 Palmdale CA
6174 19-29 Female Yee Stefanie 88 00:33:48 1013 Los Angeles CA
3661 50-59 Male Martinez Al 50 00:33:50 1014 Whittier CA
4395 30-39 Male Osuna Raymond 194 00:33:50 1015 Montebello CA
2675 40-49 Female Hansen Tricia 73 00:33:51 1016 Rancho Santa Margari CA
997 70-75 Female Beidelman Charlotte 2 00:33:51 1017 San Marino CA
1522 60-69 Male Cohen Philip 17 00:33:51 1018 Burbank CA
2277 30-39 Female Garcia Kelllie 132 00:33:51 1019 Duarte CA
6519 14-18 Male Mateo Kelvin 100 00:33:51 1020 Los Angeles CA
3360 1-13 Female Liebmann Lucy 26 00:33:52 1021 Glendale CA
3361 1-13 Male Liebmann Max 57 00:33:52 1022 Glendale CA
1803 40-49 Male Diaz Robert I. 122 00:33:52 1023 Covina CA
2987 50-59 Female Jautegui Imelda 23 00:33:52 1024 Los Angeles CA
5852 14-18 Male Ureta Damian 101 00:33:53 1025 Pico Rivera CA
5631 14-18 Male Talavera Alan 102 00:33:54 1026 Inglewood CA
2284 19-29 Male Garcia Milton 90 00:33:55 1027 Los Angeles CA
1109 19-29 Female Bramasco Jessica 89 00:33:55 1028 Garden Grove CA
2253 50-59 Male Garcia David 51 00:33:56 1029 Long Beach CA
1489 1-13 Male Cisneros Angel 58 00:33:56 1030 Whittier CA
1494 1-13 Female Cisneros Miley 27 00:33:56 1031 Whittier CA
5654 40-49 Female Tarula Joanna 74 00:33:57 1032 Azusa CA
4925 50-59 Male Rioux Donald 52 00:33:57 1033 Chico CA
1715 30-39 Female De La Fuente Jennifer 133 00:33:57 1034 Glendale CA
6044 30-39 Male Wadia Darius 195 00:33:58 1035 Lake Balboa CA
3643 40-49 Female Marquez Maria 75 00:33:58 1036 Norwalk CA
420 40-49 Male Wong Martin 123 00:33:58 1037 Los Angeles CA
418 40-49 Female Lau Wendy 76 00:33:59 1038 Los Angeles CA
6131 1-13 Female Wong Eloise 28 00:33:59 1039 Los Angeles CA
6428 1-13 Female Gonzalez Monica 29 00:33:59 1040 North Hollywood CA
5104 14-18 Male Rood Trent 103 00:33:59 1041 Los Angeles CA
5923 14-18 Male Vargas Armando 104 00:33:59 1042 Temecula CA
6073 50-59 Male Weida David 53 00:33:59 1043 Santa Monica CA
6074 30-39 Female Weida Tristen 134 00:33:59 1044 Santa Monica CA
4407 19-29 Male Padilla Benjamin 91 00:34:00 1045 Lynwood CA
5294 19-29 Female Sanchez Jessica 90 00:34:00 1046 Azusa CA
1450 19-29 Female Che Elaine 91 00:34:01 1047 Baldwin Park CA
2394 30-39 Male Goan Bor Sheng 196 00:34:01 1048 San Gabriel CA
5707 30-39 Male Ting Ryan 197 00:34:01 1049 Arcadia CA
2960 30-39 Female Iwata Stacy 135 00:34:01 1050 San Gabriel CA
3542 30-39 Female Ma Cynthia 136 00:34:01 1051 Los Angeles CA
129 30-39 Female Venzor Cindy 137 00:34:02 1052 Anaheim CA
6209 40-49 Female Zamudio Diaz Monica 77 00:34:02 1053 Chino Hills CA
4362 19-29 Female Ortega Vanessa 92 00:34:02 1054 Los Angeles CA
4356 30-39 Female Ortega Maria 138 00:34:03 1055 Bell Gardens CA
5282 30-39 Male Sanchez E 198 00:34:04 1056 Los Angeles CA
645 40-49 Female Allegra Michelle 78 00:34:04 1057 Sherman Oaks CA
6183 1-13 Male Yoshiba Kai 59 00:34:05 1058 Rancho Palos Verdes CA
1106 30-39 Male Boyce Florian 199 00:34:06 1059 Los Angeles CA
827 1-13 Male Avalos Aaron 60 00:34:06 1060 Glendora CA
3885 30-39 Female Mendoza Karmen 139 00:34:06 1061 Santa Fe Springs CA
344 19-29 Male Ufert Mark 92 00:34:07 1062 Covina CA
4800 19-29 Male Ramirez Ralf 93 00:34:08 1063 Long Beach CA
3428 30-39 Female Lopez Ariana 140 00:34:09 1064 Oxnard CA
1495 19-29 Female Cisneros Neyva 93 00:34:09 1065 Whittier CA
5137 40-49 Female Rotenberg Shannon 79 00:34:09 1066 Los Angeles CA
4983 40-49 Male Rodarte John 124 00:34:10 1067 Pasadena CA
6047 40-49 Male Waite William 125 00:34:10 1068 Moreno Valley CA
4631 50-59 Male Plourde Martin 54 00:34:11 1069 Upland CA
1059 30-39 Female Boehnke Lauren 141 00:34:11 1070 Colton CA
6648 40-49 Female Soto Sandra 80 00:34:11 1071 Sylmar CA
4117 19-29 Female Munoz Emily 94 00:34:12 1072 Los Angeles CA
3028 40-49 Male Johnson David 126 00:34:12 1073 Burbank CA
1407 40-49 Male Chapa Antonio 127 00:34:12 1074 Cudahy CA
2584 30-39 Female Guisinger Amelia 142 00:34:12 1075 Marina Del Rey CA
5102 1-13 Male Rood Duke 61 00:34:13 1076 Los Angeles CA
6019 40-49 Female Villalobos Ana Lilia 81 00:34:13 1077 Salinas CA
4552 50-59 Female Perez Linda 24 00:34:14 1078 Santa Ana CA
3352 19-29 Female Leyva Alma 95 00:34:14 1079 Buena Park CA
6510 50-59 Male Maldonado Ernie 55 00:34:14 1080 Glendora CA
3324 50-59 Female Lenington Melanie 25 00:34:14 1081 Santa Monica CA
717 40-49 Female Andrews Jackie 82 00:34:15 1082 Burbank CA
2214 30-39 Female Galvez Stephanie 143 00:34:15 1083 North Hollywood CA
961 30-39 Female Basta Sarah 144 00:34:15 1084 Los Angeles CA
6386 40-49 Male Elliott Craig 128 00:34:15 1085 La Crescenta CA
218 40-49 Female Moody Nelly 83 00:34:15 1086 Los Angeles CA
2919 30-39 Female Ibarra Danielle 145 00:34:16 1087 South Pasadena CA
6582 40-49 Female Pereira Milagro 84 00:34:16 1088 Inglewood CA
1473 30-39 Female Christovich Teresa 146 00:34:16 1089 Los Angeles CA
1021 40-49 Male Bergquist Douglas 129 00:34:16 1090 Beaumont CA
5941 30-39 Female Vasquez Dineen 147 00:34:16 1091 Rancho Cucamonga CA
3904 14-18 Female Menjivar Idania 48 00:34:17 1092 North Hills CA
5398 30-39 Male Sedillo Shannon 200 00:34:18 1093 North Hollywood CA
5208 19-29 Female Sainz Laura 96 00:34:19 1094 Sylmar CA
1451 30-39 Female Chea Hung 148 00:34:19 1095 Temple City CA
5811 40-49 Female Tsuji-truong Laura 85 00:34:21 1096 San Gabriel CA
1013 30-39 Male Benitez Lorenzo 201 00:34:21 1097 Los Angeles CA
4061 19-29 Male Moran Edward 94 00:34:21 1098 Los Angeles CA
3879 40-49 Male Mendoza Demetrio 130 00:34:21 1099 Los Angeles CA
4728 14-18 Male Quiroga Nathan 105 00:34:22 1100 Grover Beach CA
Notes Pages Download Filter By
  1 2 3 4 5 6 7 8 9 10 [11] 12 13 14 15 16 17 18 19 20




Keyword Exact  
Division

Bib Division Last Name First Name Division Place Total Time Overall City State
2517 40-49 Male Gonzalez Rodriguez Gustavo 141 01:11:51 1001 Chino CA
3937 40-49 Male Miguel Martin 142 01:11:51 1002 Los Angeles CA
6226 40-49 Male Zell Sheldon 143 01:11:54 1003 Riverside CA
4396 30-39 Female Ouchattou Sanaa 136 01:11:54 1004 Boston MA
3285 30-39 Female Le Jackie 137 01:11:54 1005 Walnut CA
919 19-29 Male Barba Sergio 115 01:11:55 1006 Reseda CA
1854 50-59 Male Dorado Antolino 73 01:11:55 1007 Hawthorne CA
253 19-29 Male Measkhan Kevin 116 01:11:56 1008 Bellflower CA
2946 40-49 Female Inoue Satoko 82 01:11:58 1009 Torrance CA
289 30-39 Male Bulahan David 232 01:11:58 1010 Los Angeles CA
4299 40-49 Male Olivares Enrique 144 01:12:00 1011 Los Angeles CA
3001 19-29 Male Jimenez Bert 117 01:12:02 1012 Banning CA
2055 40-49 Male Figueroa Juan 145 01:12:07 1013 Camarillo CA
4151 30-39 Female Najera Lisbeth 138 01:12:08 1014 Rancho Cucamonga CA
6823 19-29 Female Jong Olivia 89 01:12:08 1015
4457 50-59 Male Parrill Todd 74 01:12:08 1016 Glendale CA
4149 30-39 Female Najera Daniela 139 01:12:09 1017 Buellton CA
1663 40-49 Male Cuna Alvin 146 01:12:11 1018 La Crescenta CA
2343 30-39 Male Gatlin Kyle 233 01:12:12 1019 Valencia CA
3204 19-29 Male Kunz Harrison 118 01:12:13 1020 Claremont CA
4540 30-39 Female Perez Jackie 140 01:12:14 1021 Los Angeles CA
4942 19-29 Female Rivera Karen 90 01:12:14 1022 Fontana CA
90 19-29 Female Mckee Megan 91 01:12:16 1023 Tempe AZ
4777 40-49 Female Ramirez Leslie 83 01:12:16 1024 Palmdale CA
4493 40-49 Female Pena Lina 84 01:12:19 1025 Downey CA
5578 19-29 Female Stivers Sara 92 01:12:25 1026 Culver City CA
3728 30-39 Female Martinez Rachel 141 01:12:28 1027 Downey CA
1062 40-49 Male Boehnke SR. Fred 147 01:12:29 1028 Moreno Valley CA
6369 14-18 Female Delacruz Araiz 17 01:12:29 1029 Maywood CA
4380 40-49 Male Ortiz Orville 148 01:12:35 1030 Glendale CA
6657 30-39 Male Tocgonzalez Gerson 234 01:12:37 1031 Temecula CA
4869 30-39 Female Requa Susan 142 01:12:46 1032 Los Angeles CA
1705 19-29 Female De Avila Margarita 93 01:12:46 1033 Ontario CA
4298 50-59 Female Oldham Kathy 26 01:12:48 1034 Tarzana CA
5179 30-39 Female Ruiz Teresa 143 01:12:49 1035 Beaumont CA
49 30-39 Female Diera Claudia 144 01:12:51 1036 Whittier CA
6102 30-39 Female Wiger Rachel 145 01:12:52 1037 Pasadena CA
3096 40-49 Male Kano Jonathan 149 01:12:52 1038 Fontana CA
5932 40-49 Male Vargas Roberto 150 01:12:52 1039 Oxnard CA
4385 40-49 Female Ortiz Sonia 85 01:12:53 1040 Oxnard CA
4417 1-13 Female Palacios Lizeth 7 01:12:54 1041 Los Angeles CA
867 30-39 Female Baclig Aubrey Joy 146 01:12:54 1042 Walnut CA
296 19-29 Male Wong Simon 119 01:12:54 1043 Rosemead CA
137 30-39 Female Mathus Soledad 147 01:12:55 1044 La Mirada CA
5764 30-39 Male Torres Marcos 235 01:12:55 1045 Lompoc CA
5760 30-39 Male Torres Juan 236 01:12:56 1046 Lompoc CA
5597 1-13 Female Suarez Sara 8 01:12:56 1047 Los Angeles CA
1032 30-39 Male Berzenski Marc 237 01:12:58 1048 North Hollywood CA
2599 30-39 Female Gutierrez Diane 148 01:12:59 1049 Los Angeles CA
3900 40-49 Male Menendez Jorge 151 01:13:03 1050 Long Beach CA
6367 14-18 Male De La Torre Andres 51 01:13:07 1051 Bell CA
2755 19-29 Male Hernandez George 120 01:13:09 1052 Los Angeles CA
5593 30-39 Female Stuart Sarah 149 01:13:15 1053 Sherman Oaks CA
1028 40-49 Male Berrios David 152 01:13:16 1054 South Gate CA
6541 30-39 Female Montanez Elizabeth 150 01:13:18 1055 Mission Hills CA
1307 50-59 Male Carter Ronald 75 01:13:20 1056 Porter Ranch CA
870 50-59 Female Bacus Priscilla 27 01:13:20 1057 Bakersfield CA
3840 40-49 Male Mejia Miguel 153 01:13:21 1058 Los Angeles CA
117 40-49 Female Ryu Wendy 86 01:13:21 1059 Glendale CA
6095 40-49 Male Whitchurch Elven 154 01:13:22 1060 Riverside CA
2655 19-29 Female Haby Brittany 94 01:13:24 1061 Venice CA
3038 30-39 Female Johnson Tamra 151 01:13:29 1062 Venice CA
898 19-29 Female Bancroft Caitlin 95 01:13:32 1063 Altadena CA
3441 30-39 Male Lopez Eric 238 01:13:32 1064 El Monte CA
3079 40-49 Female Juico Jacqueline 87 01:13:33 1065 Los Angeles CA
6311 30-39 Male Camacho Rafael 239 01:13:34 1066 Mira Loma CA
6259 30-39 Female Alonzo Vivian 152 01:13:35 1067 Lawndale CA
674 40-49 Male Alvarado Saul 155 01:13:35 1068 Los Angeles CA
4291 19-29 Female Ogino Arisa 96 01:13:36 1069 Monterey Park CA
670 40-49 Female Alvarado Glenda 88 01:13:36 1070 Los Angeles CA
364 40-49 Male Olivas Marco 156 01:13:36 1071 Whittier CA
6352 40-49 Female Cota Kimberly 89 01:13:37 1072 Santa Ana CA
75 30-39 Male Jahchan Rudy 240 01:13:38 1073 Los Angeles CA
4124 40-49 Female Munoz Lanette 90 01:13:40 1074 Monterey Park CA
1427 19-29 Female Chavez Ana Luz 97 01:13:41 1075 Baldwin Park CA
1580 50-59 Female Cordobes Laurie 28 01:13:42 1076 Los Angeles CA
2733 40-49 Female Hernandez Blanca 91 01:13:42 1077 Bell Gardens CA
3138 19-29 Female Kim Barbara 98 01:13:43 1078 Ventura CA
855 19-29 Male Ayala Cody 121 01:13:44 1079 Long Beach CA
5287 19-29 Male Sanchez Frank 122 01:13:45 1080 Norwalk CA
2062 40-49 Male Figueroa Walter 157 01:13:47 1081 Los Angeles CA
4084 19-29 Male Moreno Matthew 123 01:13:47 1082 Temple City CA
3165 50-59 Male Klassen Kevin 76 01:13:47 1083 Scottsdale AZ
5512 30-39 Female Soiseth Kristin 153 01:13:50 1084 Glendale CA
1020 40-49 Female Bergner Ana 92 01:13:50 1085 Brea CA
3167 14-18 Female Klassen Sabrina 18 01:13:53 1086 Scottsdale AZ
6217 40-49 Male Zavala Ezequiel 158 01:13:53 1087 Long Beach CA
2084 19-29 Female Flores Evelyn 99 01:13:56 1088 Sylmar CA
2910 40-49 Female Hurtado Liliana 93 01:13:57 1089 Whittier CA
3185 30-39 Female Komiyama Tetsuko 154 01:13:58 1090 Whittier CA
5866 40-49 Male Uzqueda Marvin 159 01:14:01 1091 Downey CA
6529 30-39 Female Melendez Roxana 155 01:14:01 1092 Brea CA
2365 30-39 Female Ghanem Angie 156 01:14:01 1093 Culver City CA
1311 30-39 Female Carter Tera 157 01:14:03 1094 Rocklin CA
3356 30-39 Female Lezama Emilia 158 01:14:03 1095 Merced CA
4110 40-49 Female Muniz Kelly 94 01:14:03 1096 Torrance CA
2082 19-29 Female Flores Elizabeth 100 01:14:04 1097 Los Angeles CA
3241 50-59 Male Lane David 77 01:14:05 1098 Chino Hills CA
4506 30-39 Female Peralta Lorene 159 01:14:06 1099 Whittier CA
2713 40-49 Female Henderson Elvia 95 01:14:07 1100 Los Angeles CA